Pagrindinis puslapis
METAR-TAF:

METAR-TAF

Oro uostai :

Voronežas, Rusija

platuma: 51-39N, ilguma: 039-15E, Aukštis: 154 m

Dabartinis oras

Ataskaita buvo paskelbta 36 minutes, ne 05:30 UTC
Vėjas 10 kt iš Rytų/Pietryčių
Temperatūra 19°C
Drėgmė 56%
Slėgis 1004 hPa
Matomumas 10 km arba daugiau
nėra debesų žemiau 1500 m ir nėra kamuolinių lietaus debesų

METAR: UUOO 300530Z 11005MPS CAVOK 19/10 Q1004 R12/090070 NOSIG RMK QFE739

Laikas: 09:06 (06:06 UTC)

Prognozė

Ataskaita buvo paskelbta 1 valandą ir 6 minutes, ne 05:00 UTC
Prognozė galioja nuo 30 metu 06 UTC su 30 metu 15 UTC
Vėjas 14 kt iš Rytų/Pietryčių
Matomumas 10 km arba daugiau
Su prošvaistėmis ne aukštis 3000 ft, Liūtiniai kamuoliniai debesys.
lietus
Tapsmas
nuo 30 metu 07 UTC su 30 metu 09 UTC
Vėjas 14 kt iš Pietų/Pietvakarių
Tikimybė 40% :
Laikinai
nuo 30 metu 09 UTC su 30 metu 15 UTC
perkūnija, lietus

TAF: UUOO 300500Z 3006/3015 11007MPS 9999 -SHRA BKN030CB BECMG 3007/3009 20007MPS PROB40 TEMPO 3009/3015 -TSRA

Orai ataskaitas ir orų prognozės (METAR, TAF).

turimą stotys yra geltonos ir raudonos taškus žemėlapyje.

Perkelti pele per norėdami pamatyti stoties vardą.

Tada spustelėkite, norėdami matyti oro stebėjimo ir prognozės.

Norėdami pakeisti žemėlapį: spustelėkite ant žalios mygtukų su juodo kryžiaus žemyn,; žalią mygtuką su brūkšneliu, jei norite nutolinti; arba žalių rodyklių gretimoms žemėlapius.


METAR-TAF: